Flight Track Log - Related Links

Times and Time Zones

All times are in EDT time to prevent confusion due to time zone crossing. See the N525H flight status page for this flight to view local times or setup timezone preferences in your user account.

Time Position Orientation Groundspeed Altitude Reporting Facility
EDT Latitude Longitude Course Direction KTS MPH feet Rate Location/Type
Wed 05:53:00 AM 44.3699 -74.2242 220° Southwest  Level FlightAware Approximate
Wed 05:54:00 AM 44.3153 -74.3027 235° Southwest  Level FlightAware Approximate
Wed 05:57:43 AM 44.3022 -74.3286 235° Southwest 364 419 7,500  Level Boston Center
Wed 05:58:43 AM 44.2594 -74.3939 228° Southwest 290 334 10,200 2,800 Climbing Boston Center
Wed 05:59:43 AM 44.2142 -74.4706 231° Southwest 275 316 13,100 2,650 Climbing Boston Center
Wed 06:00:43 AM 44.1692 -74.5472 231° Southwest 265 305 15,500 2,300 Climbing Boston Center
Wed 06:01:43 AM 44.1239 -74.6267 232° Southwest 265 305 17,700 2,050 Climbing Boston Center
Wed 06:02:43 AM 44.0744 -74.7086 230° Southwest 271 312 19,600 1,850 Climbing Boston Center
Wed 06:03:43 AM 44.0247 -74.7906 230° Southwest 271 312 21,400 1,545 Climbing Boston Center
Wed 06:04:55 AM 43.9772 -74.8753 232° Southwest 276 318 23,000 1,545 Climbing Boston Center
Wed 06:05:55 AM 43.9167 -74.9764 230° Southwest 281 323 24,800 1,700 Climbing Boston Center
Wed 06:06:55 AM 43.8647 -75.0606 229° Southwest 286 329 26,400 1,350 Climbing Boston Center
Wed 06:07:55 AM 43.8147 -75.1447 231° Southwest 286 329 27,500 1,350 Climbing Boston Center
Wed 06:08:55 AM 43.7583 -75.2428 231° Southwest 294 338 29,100 1,400 Climbing Boston Center
Wed 06:09:55 AM 43.7122 -75.3297 234° Southwest 294 338 30,300 1,250 Climbing Boston Center
Wed 06:10:55 AM 43.6725 -75.4197 239° Southwest 284 327 31,600 1,350 Climbing Boston Center
Wed 06:11:55 AM 43.6325 -75.5097 238° Southwest 279 321 33,000 1,300 Climbing Boston Center
Wed 06:12:55 AM 43.5947 -75.5967 239° Southwest 273 314 34,200 1,089 Climbing Boston Center
Wed 06:16:58 AM 43.4403 -75.9308 238° Southwest 265 305 38,500 1,050 Climbing Cleveland Center
Wed 06:17:58 AM 43.4017 -76.0139 237° Southwest 265 305 39,500 750 Climbing Cleveland Center
Wed 06:18:58 AM 43.3633 -76.0967 238° Southwest 265 305 40,000 250 Climbing Cleveland Center
Wed 06:19:58 AM 43.3228 -76.1825 237° Southwest 271 312 40,000  Level Cleveland Center
Wed 06:20:58 AM 43.2786 -76.2797 238° Southwest 291 335 40,000  Level Cleveland Center
Wed 06:21:58 AM 43.2300 -76.3800 236° Southwest 304 350 40,000  Level Cleveland Center
Wed 06:22:58 AM 43.1817 -76.4831 237° Southwest 309 356 40,000  Level Cleveland Center
Wed 06:23:58 AM 43.1314 -76.5917 238° Southwest 325 374 40,000  Level Cleveland Center
Wed 06:24:58 AM 43.0747 -76.7061 236° Southwest 342 394 40,000  Level Cleveland Center
Wed 06:25:58 AM 43.0261 -76.8114 238° Southwest 345 397 40,000  Level Cleveland Center
Wed 06:26:58 AM 42.9753 -76.9167 237° Southwest 339 390 40,000  Level Cleveland Center
Wed 06:27:58 AM 42.9244 -77.0247 237° Southwest 339 390 40,000  Level Cleveland Center
Wed 06:28:58 AM 42.8753 -77.1267 237° Southwest 339 390 40,000  Level Cleveland Center
Wed 06:29:58 AM 42.8244 -77.2342 237° Southwest 339 390 40,000  Level Cleveland Center
Wed 06:30:58 AM 42.7753 -77.3358 237° Southwest 339 390 40,000  Level Cleveland Center
Wed 06:31:58 AM 42.7258 -77.4403 237° Southwest 339 390 40,000  Level Cleveland Center
Wed 06:32:58 AM 42.6744 -77.5417 235° Southwest 344 396 40,000  Level Cleveland Center
Wed 06:33:58 AM 42.6272 -77.6511 240° Southwest 344 396 40,000  Level Cleveland Center
Wed 06:34:58 AM 42.5736 -77.7581 236° Southwest 344 396 40,000  Level Cleveland Center
Wed 06:35:58 AM 42.5158 -77.8675 234° Southwest 349 402 40,000  Level Cleveland Center
Wed 06:36:58 AM 42.4661 -77.9711 237° Southwest 349 402 40,000  Level Cleveland Center
Wed 06:37:58 AM 42.4142 -78.0772 236° Southwest 344 396 40,000  Level Cleveland Center
Wed 06:38:58 AM 42.3622 -78.1806 236° Southwest 344 396 40,000  Level Cleveland Center
Wed 06:39:58 AM 42.3103 -78.2892 237° Southwest 344 396 40,000  Level Cleveland Center
Wed 06:40:58 AM 42.2561 -78.3978 236° Southwest 344 396 40,000  Level Cleveland Center
Wed 06:41:58 AM 42.2017 -78.5061 236° Southwest 344 396 40,000  Level Cleveland Center
Wed 06:42:58 AM 42.1414 -78.6231 235° Southwest 349 402 40,000  Level Cleveland Center
Wed 06:43:58 AM 42.0869 -78.7308 236° Southwest 355 409 40,000  Level Cleveland Center
Wed 06:44:58 AM 42.0303 -78.8417 235° Southwest 355 409 40,000  Level Cleveland Center
Wed 06:45:58 AM 41.9756 -78.9492 236° Southwest 355 409 40,000  Level Cleveland Center
Wed 06:46:58 AM 41.9186 -79.0594 235° Southwest 355 409 40,000  Level Cleveland Center
Wed 06:47:58 AM 41.8700 -79.1583 237° Southwest 355 409 40,000  Level Cleveland Center
Wed 06:48:58 AM 41.8358 -79.2733 248° West 353 406 40,000  Level Cleveland Center
Wed 06:49:58 AM 41.8267 -79.4017 265° West 341 392 40,000  Level Cleveland Center
Wed 06:50:58 AM 41.7967 -79.5219 252° West 341 392 40,000  Level Cleveland Center
Wed 06:51:58 AM 41.7414 -79.6314 236° Southwest 341 392 40,000 -350 Level Cleveland Center
Wed 06:52:58 AM 41.6756 -79.7492 233° Southwest 355 409 39,300 -800 Descending Cleveland Center
Wed 06:53:58 AM 41.6114 -79.8306 223° Southwest 361 415 38,400 -650 Descending Cleveland Center
Wed 06:54:58 AM 41.5286 -79.9092 215° Southwest 366 421 38,000 -200 Descending Cleveland Center
Wed 06:55:58 AM 41.4456 -79.9903 216° Southwest 372 428 38,000 -500 Level Cleveland Center
Wed 06:56:58 AM 41.3397 -80.0383 199° South 367 422 37,000 -1,000 Descending Cleveland Center
Wed 06:57:58 AM 41.2397 -80.0833 199° South 374 430 36,000 -1,000 Descending Cleveland Center
Wed 06:58:58 AM 41.1397 -80.1283 199° South 374 430 35,000 -850 Descending Cleveland Center
Wed 06:59:58 AM 41.0797 -80.2250 231° Southwest 361 415 34,300 -1,250 Descending Cleveland Center
Wed 07:00:58 AM 41.0342 -80.3408 242° Southwest 343 395 32,500 -1,900 Descending Cleveland Center
Wed 07:01:58 AM 40.9906 -80.4592 244° Southwest 354 407 30,500 -1,550 Descending Cleveland Center
Wed 07:02:58 AM 40.9447 -80.5750 242° Southwest 354 407 29,400 -1,050 Descending Cleveland Center
Wed 07:03:58 AM 40.9031 -80.6875 244° Southwest 354 407 28,400 -1,000 Descending Cleveland Center
Wed 07:04:58 AM 40.8611 -80.8028 244° Southwest 349 402 27,400 -1,000 Descending Cleveland Center
Wed 07:05:58 AM 40.8150 -80.9150 242° Southwest 349 402 26,400 -6,700 Descending Cleveland Center
Wed 07:06:58 AM 40.7708 -81.0328 244° Southwest 349 402 14,000 -1,550 Descending Cleveland Center
Wed 07:07:58 AM 40.7244 -81.1475 242° Southwest 354 407 23,300 1,665 Climbing Cleveland Center
Wed 07:10:27 AM 40.6250 -81.4025 243° Southwest 338 389 19,800 -1,429 Descending Indianapolis Center
Wed 07:11:28 AM 40.5761 -81.5294 243° Southwest 333 383 18,300 -1,415 Descending Indianapolis Center
Wed 07:12:30 AM 40.5361 -81.6319 243° Southwest 321 369 16,900 -1,317 Descending Indianapolis Center
Wed 07:13:31 AM 40.4981 -81.7275 242° Southwest 302 348 15,600 -1,279 Descending Indianapolis Center
Wed 07:14:32 AM 40.4603 -81.8231 243° Southwest 294 338 14,300 -1,024 Descending Indianapolis Center
Wed 07:15:34 AM 40.4208 -81.9225 243° Southwest 299 344 13,500 -927 Descending Indianapolis Center
Wed 07:16:35 AM 40.3806 -82.0206 242° Southwest 302 348 12,400 -1,082 Descending Indianapolis Center
Wed 07:17:36 AM 40.3406 -82.1239 243° Southwest 310 357 11,300 -913 Descending Indianapolis Center
Wed 07:18:07 AM 40.3194 -82.1758 242° Southwest 296 341 11,000 -295 Descending Indianapolis Center
Wed 07:18:37 AM 40.3031 -82.2156 242° Southwest 290 334 11,000 -164 Level Indianapolis Center
Wed 07:19:20 AM 40.2728 -82.2883 241° Southwest 289 333 10,800 -583 Descending Indianapolis Center
Wed 07:20:20 AM 40.2197 -82.3672 229° Southwest 287 330 10,000 -378 Descending Indianapolis Center
Wed 07:21:27 AM 40.1625 -82.4458 226° Southwest 274 315 10,000 -281 Level Indianapolis Center
Wed 07:22:28 AM 40.1097 -82.5192 227° Southwest 280 322 9,400 -881 Descending Indianapolis Center
Wed 07:23:16 AM 40.0617 -82.5847 226° Southwest 288 331 8,400 -1,304 Descending Indianapolis Center
Wed 07:24:23 AM 40.0128 -82.6608 230° Southwest 261 300 6,900 -1,406 Descending Indianapolis Center
Wed 07:25:24 AM 39.9606 -82.7231 222° Southwest 247 284 5,400 -1,748 Descending Indianapolis Center
Wed 07:26:30 AM 39.9136 -82.7994 231° Southwest 238 274 3,200 -1,370 Descending Indianapolis Center
Wed 07:27:31 AM 39.8700 -82.8569 225° Southwest 206 237 2,500 -984 Descending Indianapolis Center
Wed 07:28:38 AM 39.8356 -82.9019 225° Southwest 146 168 1,100 -1,254 Descending Indianapolis Center
Wed 07:30:00 AM 39.8138 -82.9278 207° Southwest  Level Estimated
Wed 07:37:00 AM 39.8138 -82.9278 207° Southwest  Level Estimated

Login

Don't have an account? Register now (free) for customized features, flight alerts, and more!